Flight Track Log - Related Links

Times and Time Zones

All times are in EDT time to prevent confusion due to time zone crossing. See the SWA394 flight status page for this flight to view local times or setup timezone preferences in your user account.


Time Position Orientation Groundspeed Altitude Reporting Facility
EDT Latitude Longitude Course Direction KTS MPH feet Rate Location/Type
Mon 01:32:56 PM 39.1500 -76.6000 175° South 211 243 2,300  Level Potomac TRACON
Mon 01:33:00 PM 38.1351 -76.6603 171° South  Level FlightAware Approximate
Mon 01:33:56 PM 39.1000 -76.5333 134° Southeast 249 287 4,500  Level Potomac TRACON
Mon 01:34:00 PM 38.0322 -76.6436 174° South  Level FlightAware Approximate
Mon 01:34:56 PM 39.0333 -76.4667 142° Southeast 285 328 7,000  Level Potomac TRACON
Mon 01:35:00 PM 37.9289 -76.6333 180° South  Level FlightAware Approximate
Mon 01:35:56 PM 38.9833 -76.4000 134° Southeast 300 345 9,300  Level Potomac TRACON
Mon 01:36:00 PM 37.8259 -76.6199 172° South  Level FlightAware Approximate
Mon 01:36:56 PM 38.9000 -76.4333 197° South 308 354 10,800  Level Potomac TRACON
Mon 01:37:00 PM 37.7233 -76.6012 172° South  Level FlightAware Approximate
Mon 01:37:50 PM 38.8333 -76.4833 210° Southwest 332 382 12,900  Level Potomac TRACON
Mon 01:38:00 PM 37.6177 -76.5901 175° South  Level FlightAware Approximate
Mon 01:38:22 PM 38.7994 -76.5158 217° Southwest 326 375 13,500  Level Washington Center
Mon 01:39:23 PM 38.7175 -76.5886 215° Southwest 355 409 15,400 1,920 Climbing Washington Center
Mon 01:40:27 PM 38.6308 -76.6633 214° Southwest 371 427 17,500 2,160 Climbing Washington Center
Mon 01:41:28 PM 38.5144 -76.7206 201° Southwest 384 442 19,900 2,016 Climbing Washington Center
Mon 01:42:32 PM 38.4036 -76.7044 174° South 393 452 21,700 1,536 Climbing Washington Center
Mon 01:43:33 PM 38.2986 -76.6886 173° South 399 459 23,100 1,377 Climbing Washington Center
Mon 01:44:34 PM 38.1836 -76.6742 174° South 413 475 24,500 1,403 Climbing Washington Center
Mon 01:45:37 PM 38.0417 -76.6547 174° South 424 488 26,000 1,370 Climbing Washington Center
Mon 01:46:41 PM 37.9208 -76.6406 175° South 434 499 27,400 1,152 Climbing Washington Center
Mon 01:47:42 PM 37.7989 -76.6247 174° South 436 502 28,400 1,131 Climbing Washington Center
Mon 01:48:43 PM 37.6733 -76.6078 174° South 447 514 29,700 1,056 Climbing Washington Center
Mon 01:49:47 PM 37.5483 -76.5919 174° South 447 514 30,600 1,008 Climbing Washington Center
Mon 01:50:48 PM 37.4214 -76.5842 177° South 452 520 31,800 1,082 Climbing Washington Center
Mon 01:51:49 PM 37.2775 -76.6300 194° South 446 513 32,800 960 Climbing Washington Center
Mon 01:52:53 PM 37.1558 -76.6681 194° South 446 513 33,800 576 Climbing Washington Center
Mon 01:53:54 PM 37.0358 -76.7072 195° South 445 512 34,000 97 Climbing Washington Center
Mon 01:54:57 PM 36.9147 -76.7442 194° South 446 513 34,000  Level Washington Center
Mon 01:55:58 PM 36.7944 -76.7811 194° South 446 513 34,000  Level Washington Center
Mon 01:57:01 PM 36.6742 -76.8183 194° South 446 513 34,000  Level Washington Center
Mon 01:58:05 PM 36.5297 -76.8633 194° South 446 513 34,000 -48 Level Washington Center
Mon 01:59:06 PM 36.4056 -76.9017 194° South 447 514 33,900 -49 Descending Washington Center
Mon 02:00:07 PM 36.2858 -76.9389 194° South 447 514 33,900  Level Washington Center
Mon 02:01:10 PM 36.1650 -76.9767 194° South 448 516 33,900  Level Washington Center
Mon 02:02:11 PM 36.0433 -77.0122 193° South 448 516 33,900  Level Washington Center
Mon 02:03:15 PM 35.9228 -77.0497 194° South 448 516 33,900  Level Washington Center
Mon 02:04:17 PM 35.7775 -77.0931 194° South 447 514 33,900 49 Level Washington Center
Mon 02:05:17 PM 35.6622 -77.1278 194° South 449 517 34,000 48 Climbing Washington Center
Mon 02:06:21 PM 35.5392 -77.1628 193° South 449 517 34,000  Level Washington Center
Mon 02:07:24 PM 35.4186 -77.2011 195° South 449 517 34,000  Level Washington Center
Mon 02:08:25 PM 35.2736 -77.2442 194° South 447 514 34,000  Level Washington Center
Mon 02:09:28 PM 35.1514 -77.2803 194° South 448 516 34,000  Level Washington Center
Mon 02:10:31 PM 35.0292 -77.3167 194° South 448 516 34,000  Level Washington Center
Mon 02:11:31 PM 34.9064 -77.3533 194° South 450 518 34,000  Level Washington Center
Mon 02:12:35 PM 34.7753 -77.3917 194° South 450 518 34,000  Level Washington Center
Mon 02:13:35 PM 34.6533 -77.4275 194° South 451 519 34,000 -48 Level Washington Center
Mon 02:14:39 PM 34.5319 -77.4647 194° South 451 519 33,900 -48 Descending Washington Center
Mon 02:15:39 PM 34.4117 -77.5036 195° South 449 517 33,900  Level Washington Center
Mon 02:16:43 PM 34.2672 -77.5511 195° South 449 517 33,900  Level Washington Center
Mon 02:17:44 PM 34.1461 -77.5889 194° South 448 516 33,900 65 Level Washington Center
Mon 02:18:15 PM 34.0761 -77.6078 193° South 449 517 34,000 66 Climbing Jacksonville Center
Mon 02:19:15 PM 33.9550 -77.6528 197° South 449 517 34,000  Level Jacksonville Center
Mon 02:20:15 PM 33.8375 -77.6872 194° South 449 517 34,000  Level Jacksonville Center
Mon 02:21:16 PM 33.7178 -77.7217 193° South 447 514 34,000  Level Jacksonville Center
Mon 02:22:16 PM 33.6089 -77.7606 197° South 447 514 34,000 -50 Level Jacksonville Center
Mon 02:23:16 PM 33.4875 -77.8000 195° South 447 514 33,900 -50 Descending Jacksonville Center
Mon 02:24:16 PM 33.3700 -77.8367 195° South 447 514 33,900  Level Jacksonville Center
Mon 02:25:16 PM 33.2483 -77.8733 194° South 447 514 33,900  Level Jacksonville Center
Mon 02:26:16 PM 33.1308 -77.9119 195° South 447 514 33,900 50 Level Jacksonville Center
Mon 02:27:16 PM 33.0114 -77.9508 195° South 447 514 34,000 50 Climbing Jacksonville Center
Mon 02:28:16 PM 32.8917 -77.9847 193° South 447 514 34,000  Level Jacksonville Center
Mon 02:29:16 PM 32.7722 -78.0233 195° South 452 520 34,000 -50 Level Jacksonville Center
Mon 02:30:16 PM 32.6525 -78.0594 194° South 452 520 33,900 -50 Descending Jacksonville Center
Mon 02:31:16 PM 32.5328 -78.0953 194° South 452 520 33,900  Level Jacksonville Center
Mon 02:32:16 PM 32.4153 -78.1358 196° South 452 520 33,900 50 Level Jacksonville Center
Mon 02:33:16 PM 32.2936 -78.1717 194° South 452 520 34,000 50 Climbing Jacksonville Center
Mon 02:34:16 PM 32.1739 -78.2122 196° South 452 520 34,000  Level Jacksonville Center
Mon 02:35:16 PM 32.0397 -78.2536 195° South 452 520 34,000 -50 Level Jacksonville Center
Mon 02:36:16 PM 31.9222 -78.2889 194° South 452 520 33,900 -50 Descending Jacksonville Center
Mon 02:37:16 PM 31.8025 -78.3289 196° South 452 520 33,900  Level Jacksonville Center
Mon 02:38:16 PM 31.6808 -78.3692 196° South 447 514 33,900 50 Level Jacksonville Center
Mon 02:39:16 PM 31.5611 -78.4067 195° South 453 521 34,000 50 Climbing Jacksonville Center
Mon 02:40:16 PM 31.4433 -78.4439 195° South 438 504 34,000 -50 Level Jacksonville Center
Mon 02:41:16 PM 31.3217 -78.4861 197° South 459 528 33,900 -50 Descending Jacksonville Center
Mon 02:42:16 PM 31.2039 -78.5183 193° South 451 519 33,900  Level Jacksonville Center
Mon 02:43:16 PM 31.0819 -78.5581 196° South 451 519 33,900  Level Jacksonville Center
Mon 02:44:16 PM 30.9744 -78.5897 194° South 451 519 33,900 50 Level Jacksonville Center
Mon 02:45:15 PM 30.8547 -78.6289 196° South 451 519 34,000 50 Climbing Jacksonville Center
Mon 02:46:15 PM 30.7372 -78.6681 196° South 449 517 34,000 -39 Level Jacksonville Center
Mon 02:47:48 PM 30.5511 -78.7250 195° South 446 513 33,900  Descending Miami Center
Mon 02:48:50 PM 30.4353 -78.7689 198° South 446 513 34,000  Climbing Miami Center
Mon 02:49:51 PM 30.3142 -78.8100 196° South 446 513 33,900 -49 Descending Miami Center
Mon 02:50:53 PM 30.1928 -78.8381 191° South 446 513 33,900  Level Miami Center
Mon 02:51:55 PM 30.0503 -78.8711 191° South 439 505 33,900 48 Level Miami Center
Mon 02:52:57 PM 29.9289 -78.8975 191° South 446 513 34,000  Climbing Miami Center
Mon 02:53:58 PM 29.8072 -78.9250 191° South 446 513 33,900 -49 Descending Miami Center
Mon 02:55:00 PM 29.6864 -78.9522 191° South 445 512 33,900  Level Miami Center
Mon 02:56:02 PM 29.5636 -78.9803 191° South 445 512 33,900  Level Miami Center
Mon 02:57:04 PM 29.4436 -79.0064 191° South 445 512 33,900  Level Miami Center
Mon 02:58:06 PM 29.3203 -79.0344 191° South 445 512 33,900 49 Level Miami Center
Mon 02:59:07 PM 29.1736 -79.0661 191° South 445 512 34,000 49 Climbing Miami Center
Mon 03:00:09 PM 29.0536 -79.0925 191° South 445 512 34,000  Level Miami Center
Mon 03:01:11 PM 28.9328 -79.1203 191° South 445 512 34,000  Level Miami Center
Mon 03:02:12 PM 28.8111 -79.1464 191° South 445 512 34,000 -49 Level Miami Center
Mon 03:03:14 PM 28.6903 -79.1739 191° South 444 511 33,900 -49 Descending Miami Center
Mon 03:04:15 PM 28.5669 -79.1994 190° South 448 516 33,900 -488 Level Miami Center
Mon 03:05:17 PM 28.4447 -79.2256 191° South 447 514 32,900 -1,645 Descending Miami Center
Mon 03:06:19 PM 28.3281 -79.2525 191° South 431 496 30,500 -2,537 Descending Miami Center
Mon 03:07:20 PM 28.1925 -79.2808 190° South 414 476 27,700 -2,634 Descending Miami Center
Mon 03:08:22 PM 28.0842 -79.3050 191° South 397 457 25,100 -2,081 Descending Miami Center
Mon 03:09:24 PM 27.9819 -79.3417 198° South 389 448 23,400 -1,415 Descending Miami Center
Mon 03:10:25 PM 27.8969 -79.3967 210° Southwest 354 407 22,200 -1,024 Descending Miami Center
Mon 03:11:27 PM 27.8039 -79.4564 210° Southwest 355 409 21,300 -1,024 Descending Miami Center
Mon 03:12:28 PM 27.7083 -79.5175 210° Southwest 373 429 20,100 -1,610 Descending Miami Center
Mon 03:13:30 PM 27.6133 -79.5769 209° Southwest 375 432 18,000 -2,032 Descending Miami Center
Mon 03:14:32 PM 27.5214 -79.6344 209° Southwest 356 410 15,900 -1,902 Descending Miami Center
Mon 03:15:33 PM 27.4411 -79.6850 209° Southwest 345 397 14,100 -1,854 Descending Miami Center
Mon 03:16:35 PM 27.3578 -79.7386 210° Southwest 333 383 12,100 -1,694 Descending Miami Center
Mon 03:17:37 PM 27.2769 -79.7897 209° Southwest 323 372 10,600 -1,415 Descending Miami Center
Mon 03:18:38 PM 27.2025 -79.8358 209° Southwest 294 338 9,200 -1,415 Descending Miami Center
Mon 03:19:40 PM 27.1367 -79.8772 209° Southwest 287 330 7,700 -1,548 Descending Miami Center
Mon 03:20:42 PM 27.0653 -79.9178 207° Southwest 279 321 6,000 -1,548 Descending Miami Center
Mon 03:21:44 PM 26.9953 -79.9578 207° Southwest 273 314 4,500 -976 Descending Miami Center
Mon 03:22:45 PM 26.9278 -80.0025 211° Southwest 267 307 4,000 -244 Descending Miami Center
Mon 03:23:47 PM 26.8669 -80.0556 218° Southwest 270 311 4,000  Level Miami Center
Mon 03:24:49 PM 26.8114 -80.1044 218° Southwest 266 306 4,000 -390 Level Miami Center
Mon 03:25:50 PM 26.8014 -80.1792 261° West 234 269 3,200 -829 Descending Miami Center
Mon 03:26:52 PM 26.7847 -80.2411 253° West 221 254 2,300 -629 Descending Miami Center
Mon 03:27:54 PM 26.7256 -80.2450 183° South 200 230 1,900 -339 Descending Miami Center
Mon 03:28:56 PM 26.6875 -80.2094 140° Southeast 180 207 1,600 -390 Descending Miami Center
Mon 03:29:57 PM 26.6850 -80.1611 93° East 144 166 1,100 -293 Descending Miami Center
Mon 03:30:59 PM 26.6850 -80.1172 90° East 142 163 1,000 -97 Descending Miami Center
Mon 03:32:00 PM 26.6832 -80.0956 110° East  Level Estimated

Login

Don't have an account? Register now (free) for customized features, flight alerts, and more!